createdAt,value
2023-03-21T00:01:07.502Z,95177.30
2023-03-21T00:03:36.932Z,95170.63
2023-03-21T00:06:16.377Z,95175.97
2023-03-21T00:08:48.251Z,95168.58
2023-03-21T00:11:29.416Z,95166.20
2023-03-21T00:14:01.552Z,95176.70
2023-03-21T00:16:40.614Z,95174.01
2023-03-21T00:19:10.041Z,95179.06
2023-03-21T00:25:26.228Z,95168.59
2023-03-21T00:32:15.226Z,95168.98
2023-03-21T00:34:59.707Z,95169.95
2023-03-21T00:37:22.604Z,95174.82
2023-03-21T00:40:01.526Z,95175.91
2023-03-21T00:42:35.012Z,95177.90
2023-03-21T00:45:05.039Z,95178.82
2023-03-21T00:47:39.513Z,95179.92
2023-03-21T00:50:09.591Z,95172.81
2023-03-21T00:52:50.102Z,95173.33
2023-03-21T00:55:26.684Z,95166.52
2023-03-21T00:58:02.100Z,95164.55
2023-03-21T01:00:38.108Z,95167.83
2023-03-21T01:06:08.017Z,95160.45
2023-03-21T01:08:55.515Z,95160.29
2023-03-21T01:11:25.773Z,95161.45
2023-03-21T01:14:14.625Z,95158.77
2023-03-21T01:16:32.404Z,95155.27
2023-03-21T01:19:06.961Z,95155.78
2023-03-21T01:25:21.547Z,95158.14
2023-03-21T01:27:39.383Z,95152.84
2023-03-21T01:30:19.095Z,95157.28
2023-03-21T01:32:43.658Z,95151.10
2023-03-21T01:35:16.897Z,95151.34
2023-03-21T01:37:49.872Z,95158.77
2023-03-21T01:40:21.759Z,95162.72
2023-03-21T01:42:51.787Z,95156.45
2023-03-21T01:45:56.949Z,95155.92
2023-03-21T01:48:27.204Z,95154.82
2023-03-21T01:50:56.715Z,95151.98
2023-03-21T01:53:32.682Z,95149.95
2023-03-21T01:56:04.518Z,95151.44
2023-03-21T01:58:34.168Z,95147.98
2023-03-21T02:01:05.090Z,95146.27
2023-03-21T02:03:43.158Z,95137.85
2023-03-21T02:06:15.009Z,95143.61
2023-03-21T02:08:49.487Z,95150.95
2023-03-21T02:11:28.972Z,95151.88
2023-03-21T02:14:06.407Z,95145.83
2023-03-21T02:16:31.357Z,95147.43
2023-03-21T02:19:33.040Z,95147.06
2023-03-21T02:22:10.312Z,95146.56
2023-03-21T02:25:04.276Z,95143.59
2023-03-21T02:27:34.017Z,95144.05
2023-03-21T02:30:30.443Z,95140.39
2023-03-21T02:33:06.057Z,95144.38
2023-03-21T02:35:52.397Z,95148.38
2023-03-21T02:38:40.513Z,95142.16
2023-03-21T02:41:27.449Z,95140.17
2023-03-21T02:44:19.906Z,95142.56
2023-03-21T02:47:07.233Z,95144.95
2023-03-21T02:49:48.906Z,95144.45
2023-03-21T02:52:38.016Z,95144.70
2023-03-21T02:55:02.116Z,95133.34
2023-03-21T02:57:41.660Z,95133.19
2023-03-21T03:00:15.501Z,95141.09
2023-03-21T03:02:37.718Z,95138.81
2023-03-21T03:05:21.506Z,95136.73
2023-03-21T03:08:11.902Z,95134.44
2023-03-21T03:11:02.723Z,95136.69
2023-03-21T03:14:15.857Z,95143.82
2023-03-21T03:16:58.088Z,95136.29
2023-03-21T03:19:44.639Z,95136.84
2023-03-21T03:22:33.876Z,95139.10
2023-03-21T03:25:23.096Z,95137.72
2023-03-21T03:27:55.427Z,95137.94
2023-03-21T03:30:39.259Z,95137.23
2023-03-21T03:36:41.534Z,95136.20
2023-03-21T03:39:16.434Z,95137.61
2023-03-21T03:42:27.066Z,95137.52
2023-03-21T03:44:48.004Z,95134.81
2023-03-21T03:47:36.233Z,95136.05
2023-03-21T03:50:17.701Z,95135.64
2023-03-21T03:53:16.392Z,95137.31
2023-03-21T03:55:41.996Z,95133.63
2023-03-21T03:58:22.869Z,95134.73
2023-03-21T04:00:48.079Z,95140.69
2023-03-21T04:03:21.107Z,95142.13
2023-03-21T04:12:25.024Z,95142.19
2023-03-21T04:14:56.963Z,95140.45
2023-03-21T04:17:24.252Z,95142.45
2023-03-21T04:20:05.435Z,95142.11
2023-03-21T04:22:29.594Z,95132.81
2023-03-21T04:25:00.499Z,95141.28
2023-03-21T04:27:29.534Z,95135.83
2023-03-21T04:29:59.956Z,95131.94
2023-03-21T04:32:29.234Z,95130.72
2023-03-21T04:34:58.184Z,95128.63
2023-03-21T04:37:28.390Z,95119.55
2023-03-21T04:40:07.906Z,95131.08
2023-03-21T04:42:37.287Z,95068.83
2023-03-21T04:45:07.214Z,95134.30
2023-03-21T04:47:36.089Z,95127.36
2023-03-21T04:50:11.160Z,95130.58
2023-03-21T04:52:44.461Z,95129.75
2023-03-21T04:55:25.481Z,95139.19
2023-03-21T04:57:54.348Z,95146.59
2023-03-21T05:00:25.516Z,95139.42
2023-03-21T05:02:58.686Z,95139.41
2023-03-21T05:05:29.817Z,95146.48
2023-03-21T05:08:00.784Z,95146.23
2023-03-21T05:10:29.463Z,95152.05
2023-03-21T05:12:58.150Z,95155.65
2023-03-21T05:15:26.836Z,95151.59
2023-03-21T05:17:55.607Z,95153.16
2023-03-21T05:20:26.324Z,95155.38
2023-03-21T05:22:54.960Z,95154.20
2023-03-21T05:25:25.452Z,95152.02
2023-03-21T05:27:54.316Z,95152.56
2023-03-21T05:30:23.070Z,95154.27
2023-03-21T05:32:52.003Z,95153.27
2023-03-21T05:35:20.966Z,95157.19
2023-03-21T05:37:49.650Z,95156.91
2023-03-21T05:40:20.485Z,95156.94
2023-03-21T05:42:50.755Z,95154.44
2023-03-21T05:45:19.632Z,95156.17
2023-03-21T05:47:51.740Z,95156.48
2023-03-21T05:50:20.798Z,95138.48
2023-03-21T05:52:49.707Z,95144.80
2023-03-21T05:55:25.389Z,95141.64
2023-03-21T05:57:57.530Z,95134.98
2023-03-21T06:00:30.636Z,95134.16
2023-03-21T06:03:00.019Z,95134.30
2023-03-21T06:05:34.084Z,95070.96
2023-03-21T06:08:03.214Z,95128.16
2023-03-21T06:10:31.968Z,95127.50
2023-03-21T06:13:00.770Z,95126.49
2023-03-21T06:15:29.660Z,95122.56
2023-03-21T06:17:58.365Z,95124.83
2023-03-21T06:20:27.192Z,95127.77
2023-03-21T06:22:55.843Z,95131.82
2023-03-21T06:25:24.594Z,95124.42
2023-03-21T06:27:55.132Z,95126.56
2023-03-21T06:30:25.417Z,95129.64
2023-03-21T06:32:55.102Z,95124.86
2023-03-21T06:35:25.378Z,95124.30
2023-03-21T06:44:33.681Z,95139.20
2023-03-21T06:47:06.035Z,95129.64
2023-03-21T06:49:34.756Z,95137.47
2023-03-21T06:52:03.796Z,95136.52
2023-03-21T06:54:37.253Z,95140.73
2023-03-21T06:57:06.024Z,95140.73
2023-03-21T06:59:35.158Z,95140.91
2023-03-21T07:02:07.169Z,95148.01
2023-03-21T07:07:51.674Z,95146.85
2023-03-21T07:13:51.128Z,95150.86
2023-03-21T07:16:21.872Z,95145.11
2023-03-21T07:18:52.006Z,95148.77
2023-03-21T07:21:20.663Z,95147.23
2023-03-21T07:23:50.910Z,95151.05
2023-03-21T07:26:19.863Z,95149.85
2023-03-21T07:28:48.711Z,95147.38
2023-03-21T07:31:19.678Z,95146.88
2023-03-21T07:33:48.410Z,95150.62
2023-03-21T07:36:18.768Z,95139.33
2023-03-21T07:38:48.245Z,95140.34
2023-03-21T07:41:18.658Z,95136.92
2023-03-21T07:43:50.282Z,95138.63
2023-03-21T07:46:20.825Z,95137.73
2023-03-21T07:48:49.506Z,95147.79
2023-03-21T07:51:18.229Z,95144.72
2023-03-21T07:53:49.919Z,95138.36
2023-03-21T07:56:22.048Z,95146.58
2023-03-21T07:58:53.632Z,95143.02
2023-03-21T08:01:22.324Z,95145.89
2023-03-21T08:03:58.423Z,95148.03
2023-03-21T08:06:29.260Z,95148.35
2023-03-21T08:08:57.944Z,95148.38
2023-03-21T08:11:27.610Z,95141.92
2023-03-21T08:13:56.451Z,95149.18
2023-03-21T08:16:27.307Z,95149.58
2023-03-21T08:18:55.973Z,95140.79
2023-03-21T08:21:24.975Z,95138.00
2023-03-21T08:23:55.128Z,95145.58
2023-03-21T08:26:25.530Z,95135.26
2023-03-21T08:28:54.405Z,95136.39
2023-03-21T08:31:23.463Z,95129.94
2023-03-21T08:33:53.917Z,95124.86
2023-03-21T08:36:24.415Z,95123.02
2023-03-21T08:38:54.849Z,95120.00
2023-03-21T08:44:53.594Z,95123.06
2023-03-21T08:47:22.249Z,95127.20
2023-03-21T08:49:50.838Z,95134.31
2023-03-21T08:52:19.560Z,95127.52
2023-03-21T08:54:50.803Z,95129.77
2023-03-21T08:57:19.074Z,95125.29
2023-03-21T08:59:47.834Z,95130.48
2023-03-21T09:02:18.262Z,95117.11
2023-03-21T09:04:47.770Z,95116.43
2023-03-21T09:07:20.417Z,95121.61
2023-03-21T09:10:08.233Z,95115.94
2023-03-21T09:12:22.707Z,95116.58
2023-03-21T09:14:52.994Z,95108.61
2023-03-21T09:17:21.737Z,95113.13
2023-03-21T09:19:50.947Z,95106.75
2023-03-21T09:22:21.460Z,95098.88
2023-03-21T09:24:50.907Z,95101.94
2023-03-21T09:27:21.116Z,95099.39
2023-03-21T09:29:52.763Z,95100.06
2023-03-21T09:32:21.672Z,95094.02
2023-03-21T09:34:51.137Z,95081.69
2023-03-21T09:37:23.814Z,95077.53
2023-03-21T09:43:42.669Z,95084.86
2023-03-21T09:46:26.584Z,95073.48
2023-03-21T09:49:05.883Z,95070.00
2023-03-21T09:51:38.160Z,95059.62
2023-03-21T09:54:15.431Z,95065.23
2023-03-21T09:56:46.105Z,95059.89
2023-03-21T10:02:47.348Z,95068.20
2023-03-21T10:05:22.213Z,95074.22
2023-03-21T10:08:11.679Z,95071.20
2023-03-21T10:10:43.541Z,95058.41
2023-03-21T10:13:24.029Z,95042.92
2023-03-21T10:15:54.498Z,95048.16
2023-03-21T10:18:29.287Z,95046.23
2023-03-21T10:21:01.441Z,95043.33
2023-03-21T10:23:31.480Z,95033.14
2023-03-21T10:26:03.164Z,95027.00
2023-03-21T10:28:52.543Z,95027.41
2023-03-21T10:31:14.297Z,95020.45
2023-03-21T10:33:46.157Z,95034.02
2023-03-21T10:36:20.571Z,95033.88
2023-03-21T10:38:52.235Z,95028.09
2023-03-21T10:41:24.199Z,95029.94
2023-03-21T10:44:14.055Z,95027.96
2023-03-21T10:46:56.295Z,95039.17
2023-03-21T10:49:26.869Z,95038.46
2023-03-21T10:51:58.894Z,95030.67
2023-03-21T10:54:33.292Z,95035.88
2023-03-21T10:57:12.769Z,95034.02
2023-03-21T10:59:50.165Z,95030.92
2023-03-21T11:02:38.428Z,95027.06
2023-03-21T11:05:11.372Z,95023.12
2023-03-21T11:07:40.074Z,95024.84
2023-03-21T11:10:28.140Z,95016.80
2023-03-21T11:12:50.046Z,95008.37
2023-03-21T11:15:30.998Z,95000.10
2023-03-21T11:18:17.847Z,94996.50
2023-03-21T11:20:52.344Z,94997.86
2023-03-21T11:23:21.588Z,94996.39
2023-03-21T11:25:54.641Z,94996.43
2023-03-21T11:28:27.971Z,94996.23
2023-03-21T11:30:59.367Z,94990.73
2023-03-21T11:33:30.726Z,94980.80
2023-03-21T11:36:08.392Z,94979.18
2023-03-21T11:38:41.326Z,94973.30
2023-03-21T11:41:11.752Z,94974.22
2023-03-21T11:43:41.249Z,94965.09
2023-03-21T11:46:12.729Z,94956.73
2023-03-21T11:48:48.691Z,94956.47
2023-03-21T11:51:44.864Z,94958.68
2023-03-21T11:54:48.250Z,94952.78
2023-03-21T11:57:29.755Z,94942.33
2023-03-21T12:00:05.780Z,94952.58
2023-03-21T12:02:57.902Z,94949.39
2023-03-21T12:05:29.914Z,94948.81
2023-03-21T12:08:07.095Z,94948.71
2023-03-21T12:10:42.066Z,94942.51
2023-03-21T12:13:46.506Z,94933.59
2023-03-21T12:17:03.821Z,94930.67
2023-03-21T12:23:43.853Z,94925.48
2023-03-21T12:26:33.308Z,94926.11
2023-03-21T12:29:33.079Z,94915.92
2023-03-21T12:32:39.762Z,94920.08
2023-03-21T12:35:23.423Z,94917.09
2023-03-21T12:41:38.469Z,94911.03
2023-03-21T12:44:16.045Z,94904.91
2023-03-21T12:47:26.846Z,94906.70
2023-03-21T12:50:29.323Z,94897.55
2023-03-21T12:56:24.158Z,94898.80
2023-03-21T12:59:28.008Z,94894.75
2023-03-21T13:06:12.523Z,94885.81
2023-03-21T13:08:47.102Z,94884.42
2023-03-21T13:11:25.156Z,94878.39
2023-03-21T13:14:10.607Z,94877.96
2023-03-21T13:16:51.237Z,94880.36
2023-03-21T13:19:35.215Z,94873.83
2023-03-21T13:22:11.289Z,94872.56
2023-03-21T13:28:03.861Z,94862.64
2023-03-21T13:30:44.868Z,94863.35
2023-03-21T13:33:27.018Z,94862.16
2023-03-21T13:36:06.450Z,94858.23
2023-03-21T13:38:43.307Z,94857.69
2023-03-21T13:41:24.989Z,94851.78
2023-03-21T13:44:05.001Z,94858.39
2023-03-21T13:46:52.446Z,94852.64
2023-03-21T13:49:12.647Z,94847.36
2023-03-21T13:51:52.802Z,94842.95
2023-03-21T13:54:34.362Z,94843.09
2023-03-21T13:57:09.656Z,94842.09
2023-03-21T13:59:43.500Z,94838.23
2023-03-21T14:02:31.437Z,94838.03
2023-03-21T14:05:07.029Z,94841.34
2023-03-21T14:07:39.013Z,94833.94
2023-03-21T14:10:38.601Z,94837.84
2023-03-21T14:13:11.058Z,94834.18
2023-03-21T14:15:53.094Z,94832.19
2023-03-21T14:18:35.375Z,94834.27
2023-03-21T14:20:57.562Z,94831.76
2023-03-21T14:23:26.775Z,94835.22
2023-03-21T14:25:56.152Z,94826.61
2023-03-21T14:28:28.162Z,94826.52
2023-03-21T14:31:00.406Z,94830.73
2023-03-21T14:33:32.386Z,94832.24
2023-03-21T14:36:08.554Z,94830.34
2023-03-21T14:38:40.410Z,94828.84
2023-03-21T14:41:20.975Z,94833.51
2023-03-21T14:44:04.554Z,94762.87
2023-03-21T14:46:34.294Z,94831.72
2023-03-21T14:49:27.603Z,94829.52
2023-03-21T14:51:59.342Z,94827.52
2023-03-21T14:54:29.522Z,94827.34
2023-03-21T14:57:03.517Z,94831.34
2023-03-21T14:59:35.177Z,94831.38
2023-03-21T15:02:08.417Z,94833.89
2023-03-21T15:04:37.300Z,94828.09
2023-03-21T15:07:07.590Z,94840.98
2023-03-21T15:09:36.622Z,94838.12
2023-03-21T15:12:08.714Z,94834.75
2023-03-21T15:14:40.649Z,94839.97
2023-03-21T15:17:11.303Z,94844.30
2023-03-21T15:19:42.420Z,94840.69
2023-03-21T15:22:29.086Z,94820.63
2023-03-21T15:25:00.909Z,94845.45
2023-03-21T15:27:32.645Z,94845.88
2023-03-21T15:30:03.398Z,94848.84
2023-03-21T15:32:33.818Z,94844.61
2023-03-21T15:35:08.189Z,94845.23
2023-03-21T15:37:40.121Z,94843.48
2023-03-21T15:40:12.034Z,94843.25
2023-03-21T15:42:44.700Z,94841.16
2023-03-21T15:45:29.332Z,94848.36
2023-03-21T15:48:08.147Z,94850.20
2023-03-21T15:50:40.482Z,94851.84
2023-03-21T15:53:15.054Z,94845.05
2023-03-21T15:55:50.175Z,94849.37
2023-03-21T15:58:22.207Z,94853.88
2023-03-21T16:00:55.404Z,94852.39
2023-03-21T16:03:30.596Z,94857.31
2023-03-21T16:06:11.355Z,94863.37
2023-03-21T16:08:52.132Z,94878.13
2023-03-21T16:11:29.024Z,94888.43
2023-03-21T16:13:57.939Z,94892.11
2023-03-21T16:16:31.320Z,94899.65
2023-03-21T16:19:02.133Z,94898.95
2023-03-21T16:21:34.170Z,94896.74
2023-03-21T16:24:03.239Z,94916.24
2023-03-21T16:26:35.073Z,94901.64
2023-03-21T16:29:12.139Z,94899.12
2023-03-21T16:31:44.295Z,94899.55
2023-03-21T16:34:13.371Z,94897.53
2023-03-21T16:36:44.150Z,94905.73
2023-03-21T16:39:22.050Z,94900.64
2023-03-21T16:41:51.712Z,94893.36
2023-03-21T16:44:21.202Z,94891.28
2023-03-21T16:46:50.182Z,94886.69
2023-03-21T16:49:27.611Z,94872.77
2023-03-21T16:51:59.148Z,94865.70
2023-03-21T16:54:28.340Z,94860.73
2023-03-21T16:57:04.853Z,94859.42
2023-03-21T16:59:33.657Z,94858.66
2023-03-21T17:02:13.798Z,94865.70
2023-03-21T17:05:23.162Z,94862.26
2023-03-21T17:14:39.267Z,94877.54
2023-03-21T17:17:24.663Z,94880.59
2023-03-21T17:26:50.036Z,94891.67
2023-03-21T17:29:30.609Z,94898.13
2023-03-21T17:32:25.411Z,94898.72
2023-03-21T17:35:06.656Z,94907.48
2023-03-21T17:37:39.803Z,94900.43
2023-03-21T17:40:36.822Z,94905.02
2023-03-21T17:43:27.916Z,94907.30
2023-03-21T17:46:18.187Z,94905.78
2023-03-21T17:49:02.364Z,94913.58
2023-03-21T17:58:02.328Z,94920.42
2023-03-21T18:00:45.366Z,94921.16
2023-03-21T18:03:35.692Z,94923.64
2023-03-21T18:06:24.772Z,94894.42
2023-03-21T18:09:01.838Z,94941.24
2023-03-21T18:11:33.173Z,94941.98
2023-03-21T18:14:15.411Z,94945.63
2023-03-21T18:16:33.885Z,94944.31
2023-03-21T18:19:11.043Z,94941.83
2023-03-21T18:21:45.252Z,94943.54
2023-03-21T18:24:15.477Z,94942.78
2023-03-21T18:26:52.874Z,94938.19
2023-03-21T18:32:09.129Z,94929.41
2023-03-21T18:35:11.408Z,94928.42
2023-03-21T18:40:51.980Z,94934.42
2023-03-21T18:52:03.682Z,94930.59
2023-03-21T18:54:51.189Z,94930.20
2023-03-21T18:57:45.525Z,94928.62
2023-03-21T19:04:29.486Z,94936.14
2023-03-21T19:10:10.699Z,94954.69
2023-03-21T19:12:21.986Z,94960.75
2023-03-21T19:15:08.369Z,94964.19
2023-03-21T19:20:44.410Z,94955.14
2023-03-21T19:23:23.261Z,94956.03
2023-03-21T19:25:54.442Z,94952.72
2023-03-21T19:28:25.116Z,94955.01
2023-03-21T19:30:56.190Z,94952.83
2023-03-21T19:33:38.496Z,94951.11
2023-03-21T19:36:21.833Z,94946.77
2023-03-21T19:38:49.221Z,94951.11
2023-03-21T19:41:18.402Z,94953.59
2023-03-21T19:43:54.559Z,94951.73
2023-03-21T19:46:22.286Z,94952.00
2023-03-21T19:48:51.343Z,94952.59
2023-03-21T19:51:28.255Z,94951.77
2023-03-21T19:53:51.203Z,94953.82
2023-03-21T19:56:23.750Z,94955.77
2023-03-21T19:59:46.509Z,94956.45
2023-03-21T20:02:34.675Z,94954.02
2023-03-21T20:04:48.990Z,94924.48
2023-03-21T20:07:35.025Z,94958.23
2023-03-21T20:10:03.802Z,94955.19
2023-03-21T20:12:35.638Z,94959.26
2023-03-21T20:15:16.716Z,94961.05
2023-03-21T20:17:35.297Z,94958.88
2023-03-21T20:20:05.627Z,94957.84
2023-03-21T20:23:03.155Z,94956.07
2023-03-21T20:25:06.804Z,94959.14
2023-03-21T20:27:39.191Z,94958.42
2023-03-21T20:30:11.023Z,94956.43
2023-03-21T20:32:42.321Z,94956.76
2023-03-21T20:35:21.281Z,94943.82
2023-03-21T20:37:50.027Z,94956.76
2023-03-21T20:40:21.820Z,94955.81
2023-03-21T20:42:56.739Z,94958.70
2023-03-21T20:45:25.389Z,94958.00
2023-03-21T20:47:54.371Z,94957.29
2023-03-21T20:50:23.277Z,94959.16
2023-03-21T20:53:06.040Z,94958.35
2023-03-21T20:55:23.406Z,94959.88
2023-03-21T20:57:55.352Z,94958.43
2023-03-21T21:00:26.819Z,94965.25
2023-03-21T21:03:00.915Z,94967.27
2023-03-21T21:05:34.754Z,94971.11
2023-03-21T21:08:04.189Z,94976.52
2023-03-21T21:10:33.694Z,94975.91
2023-03-21T21:13:05.520Z,94981.89
2023-03-21T21:15:34.914Z,94973.47
2023-03-21T21:18:10.525Z,94973.17
2023-03-21T21:20:41.476Z,94966.12
2023-03-21T21:23:13.756Z,94967.65
2023-03-21T21:25:42.731Z,94969.90
2023-03-21T21:28:12.020Z,94971.53
2023-03-21T21:30:42.665Z,94976.87
2023-03-21T21:33:13.308Z,94976.52
2023-03-21T21:38:43.564Z,94984.56
2023-03-21T21:41:17.248Z,94983.39
2023-03-21T21:43:53.321Z,94983.34
2023-03-21T21:50:04.340Z,94978.55
2023-03-21T21:52:39.451Z,94977.79
2023-03-21T21:55:08.584Z,94984.79
2023-03-21T21:57:46.130Z,94983.56
2023-03-21T22:00:19.610Z,94983.70
2023-03-21T22:03:13.941Z,94986.36
2023-03-21T22:09:59.430Z,94984.95
2023-03-21T22:12:25.831Z,94989.15
2023-03-21T22:14:59.982Z,94983.50
2023-03-21T22:17:33.683Z,94983.10
2023-03-21T22:20:10.763Z,94990.67
2023-03-21T22:22:52.578Z,94990.95
2023-03-21T22:25:24.601Z,94988.02
2023-03-21T22:27:58.613Z,94963.06
2023-03-21T22:30:32.429Z,94992.69
2023-03-21T22:33:09.392Z,94991.35
2023-03-21T22:35:33.842Z,94992.95
2023-03-21T22:38:09.850Z,94988.89
2023-03-21T22:40:41.829Z,94996.80
2023-03-21T22:43:11.191Z,94993.95
2023-03-21T22:45:39.906Z,94993.55
2023-03-21T22:48:08.593Z,94995.34
2023-03-21T22:50:45.791Z,94940.16
2023-03-21T22:53:16.152Z,95001.41
2023-03-21T22:55:44.760Z,95003.86
2023-03-21T22:58:13.555Z,95000.08
2023-03-21T23:00:42.266Z,94993.00
2023-03-21T23:03:11.334Z,94992.69
2023-03-21T23:05:43.633Z,94996.16
2023-03-21T23:08:12.870Z,94993.87
2023-03-21T23:10:44.062Z,94991.41
2023-03-21T23:13:13.071Z,94990.52
2023-03-21T23:15:41.992Z,94994.27
2023-03-21T23:18:10.585Z,95000.55
2023-03-21T23:20:39.623Z,95002.88
2023-03-21T23:23:08.532Z,95001.20
2023-03-21T23:25:40.185Z,95001.33
2023-03-21T23:28:08.413Z,95002.39
2023-03-21T23:30:40.228Z,95001.44
2023-03-21T23:33:09.216Z,94999.39
2023-03-21T23:35:38.561Z,94999.52
2023-03-21T23:38:07.324Z,94996.75
2023-03-21T23:40:35.845Z,94993.64
2023-03-21T23:43:04.561Z,94990.91
2023-03-21T23:45:33.274Z,94994.47
2023-03-21T23:48:02.070Z,94992.31
2023-03-21T23:50:30.814Z,94992.23
2023-03-21T23:52:59.417Z,94993.55
2023-03-21T23:55:28.417Z,94991.09
2023-03-21T23:57:58.663Z,94993.13
